Time;durP1;ratioP1;P1;durP2;ratioP2;P2;SDS_P1;SDS_P2;PMS_P1;PMS_P2;Temp;Humidity;BMP_temperature;BMP_pressure;BME280_temperature;BME280_humidity;BME280_pressure;Samples;Min_cycle;Max_cycle;Signal;HPM_P1;HPM_P2
2023/03/09 00:01:34;;;;;;;5.27;2.63;;;;;;;4.43;56.17;97345.84;5037645;28;20424;-65
2023/03/09 00:04:00;;;;;;;4.67;2.90;;;;;;;4.56;56.51;97351.34;5021152;28;20497;-66
2023/03/09 00:06:26;;;;;;;7.20;3.50;;;;;;;4.49;56.21;97351.22;5021113;28;20040;-66
2023/03/09 00:08:52;;;;;;;5.87;3.83;;;;;;;4.72;55.79;97359.13;5004574;28;20048;-65
2023/03/09 00:11:18;;;;;;;4.03;3.00;;;;;;;4.50;55.70;97362.56;5021006;28;20048;-66
2023/03/09 00:13:45;;;;;;;7.40;3.33;;;;;;;4.61;55.96;97359.53;5021037;28;20041;-66
2023/03/09 00:16:23;;;;;;;5.20;3.33;;;;;;;4.65;56.10;97352.91;5004672;28;20037;-66
2023/03/09 00:18:51;;;;;;;6.00;3.70;;;;;;;4.31;56.20;97357.75;5020690;28;20494;-69
2023/03/09 00:24:07;;;;;;;3.53;3.00;;;;;;;4.63;56.52;97358.34;5023203;28;20126;-66
2023/03/09 00:26:34;;;;;;;5.00;3.03;;;;;;;4.32;56.47;97368.09;5037308;28;20064;-66
2023/03/09 00:29:00;;;;;;;5.77;3.57;;;;;;;4.17;56.54;97355.88;5053640;28;20055;-66
2023/03/09 00:31:27;;;;;;;5.50;3.03;;;;;;;4.29;56.48;97359.78;5020703;28;20461;-66
2023/03/09 00:33:53;;;;;;;4.87;3.43;;;;;;;4.26;56.41;97365.38;5020744;28;20036;-65
2023/03/09 00:36:18;;;;;;;4.47;3.30;;;;;;;4.09;56.63;97369.09;5004224;28;20488;-67
2023/03/09 00:38:49;;;;;;;6.27;3.50;;;;;;;4.57;56.80;97364.31;5004132;28;20056;-66
2023/03/09 00:41:16;;;;;;;5.27;3.00;;;;;;;4.34;55.94;97373.19;5022994;28;20113;-66
2023/03/09 00:43:42;;;;;;;3.87;2.97;;;;;;;4.22;55.98;97369.31;5007853;28;20052;-66
2023/03/09 00:46:09;;;;;;;3.73;3.07;;;;;;;4.26;56.01;97375.88;5024531;28;20048;-71
2023/03/09 00:48:38;;;;;;;4.93;2.50;;;;;;;4.20;56.56;97371.28;5007635;28;20298;-68
2023/03/09 00:51:05;;;;;;;3.93;2.97;;;;;;;4.16;56.64;97385.78;5023143;28;20109;-67
2023/03/09 00:53:30;;;;;;;5.27;3.57;;;;;;;4.05;56.52;97373.84;5023425;28;20068;-67
2023/03/09 00:56:00;;;;;;;5.00;3.40;;;;;;;4.37;56.70;97378.91;5006710;28;20520;-68
2023/03/09 00:58:26;;;;;;;4.30;3.20;;;;;;;4.10;56.33;97381.22;5023635;28;20554;-66
2023/03/09 01:00:52;;;;;;;6.60;3.60;;;;;;;4.10;56.36;97378.59;5004491;28;20084;-66
2023/03/09 01:03:17;;;;;;;3.97;2.70;;;;;;;4.15;55.88;97387.56;5004355;28;20041;-66
2023/03/09 01:05:43;;;;;;;5.53;3.47;;;;;;;4.15;56.00;97384.16;5004527;28;20052;-66
2023/03/09 01:08:09;;;;;;;8.23;4.00;;;;;;;3.99;55.58;97382.44;5021024;28;20048;-71
2023/03/09 01:10:38;;;;;;;5.20;3.57;;;;;;;4.12;56.12;97380.03;5004538;28;20057;-66
2023/03/09 01:13:04;;;;;;;6.37;3.47;;;;;;;4.01;55.87;97377.81;5037127;28;20033;-66
2023/03/09 01:15:29;;;;;;;5.23;3.30;;;;;;;4.07;55.39;97378.94;5004200;28;20041;-66
2023/03/09 01:17:56;;;;;;;5.23;3.37;;;;;;;3.92;56.38;97373.56;5020383;28;20111;-66
2023/03/09 01:20:22;;;;;;;7.37;3.77;;;;;;;3.96;55.69;97389.81;5020261;28;20036;-66
2023/03/09 01:22:49;;;;;;;5.70;3.60;;;;;;;3.87;56.05;97393.47;5037115;28;20122;-66
2023/03/09 01:25:15;;;;;;;5.57;3.47;;;;;;;3.79;56.26;97377.75;5036646;28;20477;-67
2023/03/09 01:27:40;;;;;;;5.70;3.53;;;;;;;3.73;56.43;97384.50;5020407;28;20040;-73
2023/03/09 01:30:07;;;;;;;6.63;3.60;;;;;;;3.79;56.35;97378.56;5020388;28;20415;-66
2023/03/09 01:32:33;;;;;;;11.20;4.10;;;;;;;3.70;56.49;97386.66;5004036;28;20041;-66
2023/03/09 01:35:03;;;;;;;5.60;3.70;;;;;;;3.74;56.51;97377.47;5020171;28;20487;-67
2023/03/09 01:37:29;;;;;;;3.93;2.90;;;;;;;3.76;56.30;97381.53;5036918;28;20473;-67
2023/03/09 01:39:56;;;;;;;8.67;3.83;;;;;;;3.77;56.20;97390.25;5036339;28;20389;-66
2023/03/09 01:42:21;;;;;;;6.67;3.37;;;;;;;3.73;56.34;97370.56;5003745;28;20041;-66
2023/03/09 01:45:23;;;;;;;5.20;3.70;;;;;;;4.29;56.36;97378.97;4987622;28;20448;-66
2023/03/09 01:47:49;;;;;;;4.33;3.30;;;;;;;3.92;55.79;97372.78;5054002;28;20068;-66
2023/03/09 01:50:18;;;;;;;7.10;3.87;;;;;;;4.02;56.14;97373.38;5019781;28;20204;-66
2023/03/09 01:52:46;;;;;;;6.80;3.87;;;;;;;3.89;56.23;97394.13;5003382;28;20404;-66
2023/03/09 01:55:15;;;;;;;6.77;4.33;;;;;;;4.00;56.02;97394.56;5003605;28;20071;-70
2023/03/09 01:57:57;;;;;;;7.27;3.90;;;;;;;4.26;55.75;97396.91;5020206;28;20037;-65
2023/03/09 02:00:25;;;;;;;5.00;3.13;;;;;;;3.97;55.59;97386.19;5031706;28;20049;-65
2023/03/09 02:03:24;;;;;;;8.80;4.20;;;;;;;4.06;55.58;97407.00;5009052;28;20551;-66
2023/03/09 02:06:04;;;;;;;5.20;3.53;;;;;;;3.75;56.15;97394.84;5022393;28;20055;-66
2023/03/09 02:08:31;;;;;;;7.03;3.33;;;;;;;3.66;56.03;97394.03;5022996;28;20067;-66
2023/03/09 02:11:00;;;;;;;7.57;4.43;;;;;;;3.47;56.20;97384.75;5022811;28;20464;-66
2023/03/09 02:13:34;;;;;;;6.50;3.53;;;;;;;3.95;55.79;97406.56;5023010;28;20047;-65
2023/03/09 02:16:00;;;;;;;6.10;3.60;;;;;;;3.77;55.16;97401.53;5006334;28;20045;-65
2023/03/09 02:18:27;;;;;;;6.07;3.67;;;;;;;3.48;55.56;97423.13;5023008;28;20044;-65
2023/03/09 02:20:57;;;;;;;5.07;3.33;;;;;;;3.42;55.64;97412.47;5039183;28;20041;-66
2023/03/09 02:23:44;;;;;;;4.65;3.13;;;;;;;4.02;55.91;97410.97;5022461;28;20036;-66
2023/03/09 02:26:22;;;;;;;4.53;3.07;;;;;;;3.77;55.22;97422.53;5022495;28;20353;-66
2023/03/09 02:28:49;;;;;;;4.73;3.20;;;;;;;3.53;55.33;97425.25;5039263;28;20098;-65
2023/03/09 02:31:16;;;;;;;5.07;3.07;;;;;;;3.44;55.51;97418.38;5022294;28;20048;-66
2023/03/09 02:33:43;;;;;;;10.10;3.27;;;;;;;3.17;54.87;97424.00;5039580;28;20106;-65
2023/03/09 02:36:09;;;;;;;4.47;3.20;;;;;;;3.35;55.23;97428.06;5006048;28;20445;-66
2023/03/09 02:38:38;;;;;;;6.67;3.40;;;;;;;3.27;55.03;97417.59;5007138;28;20440;-65
2023/03/09 02:41:07;;;;;;;6.27;3.97;;;;;;;3.31;55.82;97418.06;5022230;28;20159;-67
2023/03/09 02:43:39;;;;;;;5.13;3.00;;;;;;;3.50;56.10;97433.47;5005750;28;20217;-66
2023/03/09 02:46:06;;;;;;;8.43;3.13;;;;;;;3.18;55.59;97446.63;5022248;28;20088;-66
2023/03/09 02:48:35;;;;;;;5.20;3.10;;;;;;;3.21;55.23;97435.81;5006722;28;20135;-66
2023/03/09 02:51:01;;;;;;;5.80;2.53;;;;;;;3.11;55.29;97448.25;5005338;28;20143;-66
2023/03/09 02:53:27;;;;;;;5.33;3.20;;;;;;;3.04;55.35;97436.78;5005848;28;20157;-65
2023/03/09 02:55:55;;;;;;;3.20;2.47;;;;;;;3.33;55.26;97460.72;5022680;28;20051;-66
2023/03/09 02:58:20;;;;;;;3.53;2.70;;;;;;;3.09;55.22;97437.94;5005200;28;20066;-66
2023/03/09 03:00:48;;;;;;;4.67;2.70;;;;;;;3.02;55.44;97430.88;5002041;28;20064;-66
2023/03/09 03:03:18;;;;;;;9.03;2.87;;;;;;;3.11;55.19;97440.38;4985484;28;20076;-65
2023/03/09 03:05:45;;;;;;;4.43;2.65;;;;;;;3.06;55.05;97440.88;5002874;28;20048;-67
2023/03/09 03:08:11;;;;;;;5.87;3.20;;;;;;;2.95;55.27;97443.81;5001925;28;20098;-65
2023/03/09 03:10:37;;;;;;;6.17;3.03;;;;;;;3.16;54.90;97440.72;5001859;28;20048;-65
2023/03/09 03:13:03;;;;;;;4.47;3.23;;;;;;;3.04;54.55;97455.16;5001755;28;20051;-65
2023/03/09 03:15:30;;;;;;;5.07;2.80;;;;;;;3.26;54.59;97446.59;5018335;28;20060;-66
2023/03/09 03:18:05;;;;;;;3.27;2.53;;;;;;;3.42;54.30;97447.41;4985527;28;20036;-65
2023/03/09 03:20:34;;;;;;;4.47;3.10;;;;;;;3.13;54.02;97455.00;5018200;28;20094;-66
2023/03/09 03:23:00;;;;;;;2.83;2.37;;;;;;;3.09;53.57;97456.28;4985619;28;20094;-66
2023/03/09 03:25:36;;;;;;;4.80;3.57;;;;;;;3.06;54.08;97461.84;5002717;28;20044;-65
2023/03/09 03:28:03;;;;;;;5.33;2.87;;;;;;;2.92;54.27;97462.50;5001708;28;20052;-66
2023/03/09 03:30:30;;;;;;;4.40;2.90;;;;;;;2.87;54.02;97454.34;5001786;28;20477;-66
2023/03/09 03:32:57;;;;;;;4.60;2.70;;;;;;;2.99;53.80;97453.03;4985727;28;20445;-68
2023/03/09 03:35:28;;;;;;;4.38;2.40;;;;;;;3.13;53.80;97448.91;4986511;28;20040;-65
2023/03/09 03:37:54;;;;;;;5.53;2.93;;;;;;;3.08;53.65;97444.16;5033980;28;20105;-66
2023/03/09 03:40:22;;;;;;;6.50;3.00;;;;;;;3.05;53.71;97462.84;4985586;28;20052;-66
2023/03/09 03:42:51;;;;;;;3.87;2.87;;;;;;;3.00;53.77;97459.91;5002399;28;20049;-66
2023/03/09 03:45:17;;;;;;;5.87;3.00;;;;;;;2.80;53.74;97476.91;5017668;28;20044;-66
2023/03/09 03:47:43;;;;;;;5.23;3.30;;;;;;;2.91;53.29;97468.75;5001273;28;20528;-65
2023/03/09 03:50:09;;;;;;;3.73;2.70;;;;;;;3.05;53.69;97467.28;5001223;28;20041;-65
2023/03/09 03:52:43;;;;;;;4.00;2.47;;;;;;;2.99;53.43;97475.78;5002531;28;20053;-65
2023/03/09 03:55:09;;;;;;;4.83;2.57;;;;;;;3.02;53.38;97452.69;4984842;28;20059;-65
2023/03/09 03:57:36;;;;;;;2.90;2.47;;;;;;;2.94;53.11;97476.28;4983488;28;20048;-65
2023/03/09 04:00:09;;;;;;;4.43;3.00;;;;;;;2.90;54.16;97464.50;5005344;28;20401;-67
2023/03/09 04:02:38;;;;;;;4.80;3.00;;;;;;;2.87;53.76;97472.69;5032417;28;20037;-66
2023/03/09 04:05:06;;;;;;;4.27;2.47;;;;;;;2.98;53.14;97476.78;4985186;28;20432;-66
2023/03/09 04:07:33;;;;;;;7.30;2.90;;;;;;;2.76;53.73;97483.47;5017846;28;20131;-66
2023/03/09 04:09:59;;;;;;;3.70;2.60;;;;;;;2.87;53.42;97475.31;4984231;28;20132;-66
2023/03/09 04:12:28;;;;;;;3.47;2.40;;;;;;;3.16;53.25;97470.41;5017734;28;20119;-66
2023/03/09 04:14:54;;;;;;;5.13;3.00;;;;;;;2.82;53.03;97484.63;5003537;28;20068;-65
2023/03/09 04:17:20;;;;;;;4.70;3.10;;;;;;;2.79;53.04;97483.16;5037997;28;20083;-73
2023/03/09 04:19:46;;;;;;;5.00;2.50;;;;;;;3.08;52.66;97480.88;5038387;28;20041;-66
2023/03/09 04:22:12;;;;;;;5.73;3.07;;;;;;;2.78;52.53;97488.56;5038082;28;20097;-65
2023/03/09 04:24:37;;;;;;;6.60;2.90;;;;;;;3.04;52.83;97492.69;5021313;28;20135;-66
2023/03/09 04:27:03;;;;;;;3.27;2.47;;;;;;;3.25;52.30;97500.03;5005025;28;20045;-66
2023/03/09 04:29:44;;;;;;;5.88;2.58;;;;;;;3.37;51.74;97502.19;5021437;28;20044;-65
2023/03/09 04:32:15;;;;;;;4.80;2.63;;;;;;;3.22;51.35;97510.88;5070678;28;20057;-65
2023/03/09 04:34:44;;;;;;;5.07;2.93;;;;;;;2.98;52.06;97514.28;4989986;28;20194;-65
2023/03/09 04:37:12;;;;;;;7.20;3.00;;;;;;;2.83;52.48;97512.50;5005618;28;20163;-65
2023/03/09 04:39:39;;;;;;;4.87;2.83;;;;;;;3.11;52.81;97509.41;5054236;28;20041;-66
2023/03/09 04:42:08;;;;;;;5.67;3.03;;;;;;;3.53;52.82;97505.75;5037538;28;20044;-68
2023/03/09 04:44:34;;;;;;;4.50;2.73;;;;;;;3.18;52.11;97522.69;5054410;28;20097;-66
2023/03/09 04:47:00;;;;;;;7.37;3.17;;;;;;;3.26;51.87;97512.16;5020979;28;20045;-65
2023/03/09 04:49:26;;;;;;;4.00;3.00;;;;;;;3.14;52.72;97539.69;5019936;28;20044;-66
2023/03/09 04:51:53;;;;;;;4.13;2.60;;;;;;;3.48;52.52;97525.47;5019454;28;20102;-74
2023/03/09 04:54:18;;;;;;;4.07;2.70;;;;;;;3.35;51.60;97546.09;4987773;28;20044;-69
2023/03/09 04:56:44;;;;;;;3.40;2.77;;;;;;;3.26;52.28;97528.72;5036484;28;20041;-65
2023/03/09 04:59:18;;;;;;;6.77;3.57;;;;;;;3.40;51.77;97541.19;5042576;28;20048;-65
2023/03/09 05:01:44;;;;;;;3.73;2.43;;;;;;;3.27;51.32;97530.38;5024806;28;20028;-68
2023/03/09 05:04:15;;;;;;;4.50;2.95;;;;;;;3.62;51.29;97523.13;5009343;28;20650;-65
2023/03/09 05:06:48;;;;;;;4.47;2.40;;;;;;;3.67;50.30;97539.22;5057372;28;20123;-65
2023/03/09 05:09:15;;;;;;;7.40;2.60;;;;;;;3.87;49.82;97543.94;5057248;28;20049;-64
2023/03/09 05:11:42;;;;;;;5.63;2.53;;;;;;;3.98;49.29;97524.38;5024378;28;20542;-65
2023/03/09 05:14:11;;;;;;;3.13;2.10;;;;;;;3.90;49.37;97537.53;5041515;28;20044;-65
2023/03/09 05:16:37;;;;;;;5.37;2.30;;;;;;;3.63;48.91;97553.66;5056932;28;20383;-65
2023/03/09 05:19:04;;;;;;;4.20;2.30;;;;;;;3.90;48.76;97550.66;5040415;28;20052;-65
2023/03/09 05:21:37;;;;;;;3.70;2.47;;;;;;;4.12;48.82;97536.81;5009395;28;20063;-64
2023/03/09 05:24:06;;;;;;;3.10;2.20;;;;;;;4.09;48.33;97550.28;5040862;28;20137;-65
2023/03/09 05:26:32;;;;;;;4.27;2.40;;;;;;;3.98;47.89;97554.09;5023054;28;20446;-66
2023/03/09 05:28:58;;;;;;;4.93;2.10;;;;;;;3.71;47.72;97567.59;5056864;28;20098;-66
2023/03/09 05:31:24;;;;;;;6.07;2.33;;;;;;;3.91;47.76;97555.75;5040227;28;20044;-75
2023/03/09 05:33:52;;;;;;;4.40;2.57;;;;;;;4.60;47.47;97569.00;5056857;28;20131;-64
2023/03/09 05:36:20;;;;;;;3.43;1.87;;;;;;;4.56;46.84;97570.34;5023755;28;20056;-65
2023/03/09 05:38:48;;;;;;;4.67;2.00;;;;;;;4.67;46.78;97569.13;5023847;28;20103;-65
2023/03/09 05:41:14;;;;;;;4.30;2.20;;;;;;;4.43;46.02;97556.06;5016521;28;20151;-65
2023/03/09 05:43:41;;;;;;;4.57;2.27;;;;;;;4.33;46.06;97576.50;5040024;28;20040;-65
2023/03/09 05:46:10;;;;;;;5.63;2.67;;;;;;;4.64;46.58;97565.00;5036340;28;20233;-65
2023/03/09 05:48:39;;;;;;;5.13;2.50;;;;;;;4.94;46.00;97561.59;5016141;28;20075;-64
2023/03/09 05:51:07;;;;;;;4.00;2.67;;;;;;;4.74;45.59;97573.53;5056362;28;20045;-65
2023/03/09 05:53:34;;;;;;;4.87;2.30;;;;;;;4.58;45.37;97572.78;5040074;28;20143;-65
2023/03/09 05:56:03;;;;;;;2.57;2.07;;;;;;;4.61;45.36;97564.56;5056315;28;20052;-65
2023/03/09 05:58:30;;;;;;;4.80;2.20;;;;;;;4.59;45.34;97567.34;5056273;28;20428;-67
2023/03/09 06:00:56;;;;;;;8.00;2.20;;;;;;;4.97;45.02;97563.88;5023068;28;20064;-74
2023/03/09 06:03:24;;;;;;;6.17;2.87;;;;;;;5.22;44.52;97586.41;5040461;28;20044;-64
2023/03/09 06:06:00;;;;;;;7.05;2.00;;;;;;;5.63;45.13;97567.69;5023929;28;20130;-65
2023/03/09 06:08:26;;;;;;;2.60;2.20;;;;;;;5.62;44.44;97564.22;5056667;28;20040;-72
2023/03/09 06:10:58;;;;;;;4.27;2.00;;;;;;;5.56;44.06;97582.53;5039816;28;20056;-64
2023/03/09 06:13:24;;;;;;;5.07;2.33;;;;;;;5.52;44.83;97582.06;5056245;28;20049;-65
2023/03/09 06:15:51;;;;;;;5.20;2.07;;;;;;;5.33;44.28;97579.94;5072594;28;20044;-65
2023/03/09 06:18:18;;;;;;;2.93;2.20;;;;;;;5.52;43.89;97589.97;5006688;28;20192;-65
2023/03/09 06:20:44;;;;;;;4.07;2.57;;;;;;;5.54;44.30;97582.72;5039665;28;20056;-66
2023/03/09 06:23:10;;;;;;;7.63;2.60;;;;;;;5.99;44.04;97595.03;5022754;28;20105;-65
2023/03/09 06:25:37;;;;;;;3.53;2.03;;;;;;;6.04;43.18;97611.13;5022627;28;20134;-65
2023/03/09 06:28:03;;;;;;;3.13;2.27;;;;;;;5.77;43.10;97609.03;5039301;28;20131;-65
2023/03/09 06:30:33;;;;;;;3.53;2.50;;;;;;;5.89;43.52;97611.09;5039743;28;20476;-65
2023/03/09 06:32:59;;;;;;;4.70;2.90;;;;;;;5.92;43.02;97612.56;5022742;28;20468;-65
2023/03/09 06:35:28;;;;;;;3.37;2.27;;;;;;;5.57;43.63;97613.13;5039697;28;20127;-72
2023/03/09 06:37:54;;;;;;;5.47;2.30;;;;;;;5.78;43.84;97624.66;5022389;28;20055;-65
2023/03/09 06:40:21;;;;;;;4.43;2.63;;;;;;;6.13;43.44;97608.25;5039117;28;20059;-65
2023/03/09 06:42:48;;;;;;;3.70;2.23;;;;;;;6.20;41.80;97651.31;5006650;28;20431;-64
2023/03/09 06:45:14;;;;;;;4.60;2.27;;;;;;;6.64;42.33;97623.19;5022460;28;20044;-65
2023/03/09 06:47:39;;;;;;;3.07;2.20;;;;;;;6.42;40.97;97629.38;5055751;28;20097;-65
2023/03/09 06:50:08;;;;;;;9.30;2.30;;;;;;;6.46;42.31;97614.00;5039153;28;20476;-65
2023/03/09 06:52:37;;;;;;;4.40;2.20;;;;;;;6.66;42.32;97621.19;5006584;28;20147;-65
2023/03/09 06:55:04;;;;;;;3.27;2.50;;;;;;;6.75;42.19;97614.81;5038751;28;20036;-65
2023/03/09 06:57:30;;;;;;;3.23;2.60;;;;;;;6.55;41.59;97639.28;5022148;28;20055;-65
2023/03/09 06:59:56;;;;;;;5.37;2.40;;;;;;;5.89;41.21;97610.28;5022427;28;20074;-65
2023/03/09 07:02:23;;;;;;;4.10;2.70;;;;;;;5.86;42.29;97637.78;5038273;28;20048;-65
2023/03/09 07:04:51;;;;;;;3.17;2.57;;;;;;;6.26;41.58;97634.78;5038936;28;20504;-65
2023/03/09 07:07:18;;;;;;;6.83;1.97;;;;;;;6.22;41.97;97646.72;5038306;28;20052;-65
2023/03/09 07:09:44;;;;;;;4.87;2.13;;;;;;;6.10;41.92;97623.59;5038425;28;20037;-65
2023/03/09 07:12:09;;;;;;;4.77;2.60;;;;;;;6.19;41.92;97640.97;5021717;28;20044;-65
2023/03/09 07:14:35;;;;;;;3.83;2.13;;;;;;;6.44;43.70;97635.25;5055065;28;20052;-65
2023/03/09 07:17:01;;;;;;;11.17;2.73;;;;;;;6.57;40.47;97643.38;5037928;28;20045;-66
2023/03/09 07:19:26;;;;;;;2.53;2.20;;;;;;;6.24;39.26;97683.44;5005699;28;20130;-65
2023/03/09 07:21:55;;;;;;;4.40;2.40;;;;;;;6.63;39.99;97655.84;5005131;28;20090;-65
2023/03/09 07:24:21;;;;;;;7.30;2.33;;;;;;;7.11;39.43;97648.34;5038824;28;20036;-65
2023/03/09 07:26:48;;;;;;;4.10;2.10;;;;;;;7.64;38.22;97642.66;5038104;28;20055;-65
2023/03/09 07:29:14;;;;;;;4.60;3.40;;;;;;;8.90;37.31;97654.88;5054702;28;20052;-64
2023/03/09 07:31:40;;;;;;;4.13;2.30;;;;;;;10.13;35.16;97641.22;5054682;28;20101;-64
2023/03/09 07:34:06;;;;;;;3.97;2.53;;;;;;;10.10;33.18;97638.97;5005166;28;20052;-65
2023/03/09 07:36:31;;;;;;;3.90;1.88;;;;;;;9.19;32.69;97655.44;5021772;28;20044;-71
2023/03/09 07:38:57;;;;;;;5.30;2.05;;;;;;;9.55;33.14;97642.69;5021659;28;20131;-65
2023/03/09 07:41:23;;;;;;;4.55;2.25;;;;;;;9.43;33.18;97631.06;5021433;28;20079;-65
2023/03/09 07:43:49;;;;;;;3.65;2.60;;;;;;;10.82;31.85;97650.34;5005155;28;20468;-65
2023/03/09 07:46:20;;;;;;;3.88;1.83;;;;;;;10.24;31.81;97643.22;5006442;28;20044;-65
2023/03/09 07:48:46;;;;;;;4.82;2.00;;;;;;;9.28;32.17;97635.69;5037281;28;20527;-65
2023/03/09 07:51:12;;;;;;;4.63;1.80;;;;;;;8.14;33.41;97640.69;5021347;28;20572;-65
2023/03/09 07:53:39;;;;;;;2.45;1.25;;;;;;;7.32;34.04;97686.16;5021323;28;20488;-65
2023/03/09 07:56:07;;;;;;;11.25;2.25;;;;;;;8.07;35.33;97657.50;5037765;28;20135;-65
2023/03/09 07:58:34;;;;;;;5.93;2.00;;;;;;;8.24;34.21;97664.19;5054232;28;20484;-67
2023/03/09 08:01:00;;;;;;;2.27;1.63;;;;;;;7.03;34.37;97649.25;5021421;28;20048;-67
2023/03/09 08:03:27;;;;;;;3.53;2.00;;;;;;;6.61;36.08;97647.28;5021316;28;20056;-65
2023/03/09 08:05:55;;;;;;;17.37;2.90;;;;;;;7.03;36.07;97643.97;5053994;28;20106;-65
2023/03/09 08:08:22;;;;;;;4.93;2.20;;;;;;;7.17;36.31;97624.66;5004909;28;20143;-66
2023/03/09 08:10:49;;;;;;;2.80;2.00;;;;;;;6.94;35.99;97642.44;5071855;28;20044;-65
2023/03/09 08:13:14;;;;;;;2.23;1.93;;;;;;;6.45;36.27;97636.91;5021211;28;20472;-65
2023/03/09 08:15:40;;;;;;;4.43;2.13;;;;;;;7.03;36.37;97638.72;5004917;28;20036;-65
2023/03/09 08:18:06;;;;;;;1.90;1.70;;;;;;;7.03;35.91;97643.97;5037346;28;20048;-66
2023/03/09 08:20:32;;;;;;;2.83;1.90;;;;;;;7.30;35.66;97661.78;5021418;28;20049;-65
2023/03/09 08:22:58;;;;;;;7.30;2.10;;;;;;;7.22;35.11;97658.44;5037486;28;20481;-65
2023/03/09 08:25:24;;;;;;;3.20;2.40;;;;;;;7.30;35.35;97658.31;5054099;28;20522;-65
2023/03/09 08:27:50;;;;;;;2.43;1.50;;;;;;;6.34;34.95;97633.91;5053947;28;20040;-65
2023/03/09 08:30:18;;;;;;;3.77;2.00;;;;;;;6.65;35.51;97647.75;5004906;28;20067;-65
2023/03/09 08:32:47;;;;;;;3.23;2.00;;;;;;;6.88;35.88;97633.47;5037632;28;20560;-65
2023/03/09 08:35:21;;;;;;;5.30;2.20;;;;;;;7.83;35.14;97640.19;5037830;28;20594;-65
2023/03/09 08:37:47;;;;;;;2.70;1.57;;;;;;;6.96;34.07;97652.81;5037420;28;20049;-65
2023/03/09 08:40:14;;;;;;;3.00;1.60;;;;;;;7.15;34.41;97653.06;5036929;28;20170;-65
2023/03/09 08:42:40;;;;;;;3.50;2.47;;;;;;;7.30;34.85;97637.22;5020593;28;20053;-65
2023/03/09 08:45:07;;;;;;;4.43;1.80;;;;;;;7.71;33.80;97640.88;5037244;28;20506;-67
2023/03/09 08:47:33;;;;;;;5.20;1.87;;;;;;;7.82;33.62;97645.69;5037494;28;20094;-65
2023/03/09 08:49:59;;;;;;;4.87;2.10;;;;;;;7.20;33.48;97668.34;5053709;28;20044;-65
2023/03/09 08:52:24;;;;;;;2.73;1.83;;;;;;;7.54;33.89;97642.97;5020549;28;20098;-69
2023/03/09 08:54:51;;;;;;;3.00;1.70;;;;;;;7.71;32.94;97673.41;5004325;28;20041;-65
2023/03/09 08:57:17;;;;;;;2.47;1.50;;;;;;;7.15;32.40;97647.00;5037177;28;20059;-66
2023/03/09 08:59:44;;;;;;;2.23;1.57;;;;;;;7.25;33.52;97629.03;5036954;28;20126;-65
2023/03/09 09:02:14;;;;;;;4.23;2.20;;;;;;;7.58;33.62;97643.41;5022466;28;20040;-65
2023/03/09 09:04:44;;;;;;;1.57;1.47;;;;;;;7.56;32.93;97669.19;5057858;28;20423;-65
2023/03/09 09:07:10;;;;;;;1.63;1.50;;;;;;;7.64;32.70;97655.88;5074699;28;20055;-65
2023/03/09 09:09:40;;;;;;;1.70;1.57;;;;;;;7.82;33.01;97650.97;5024428;28;20059;-66
2023/03/09 09:12:06;;;;;;;1.77;1.47;;;;;;;7.66;33.21;97641.47;5057290;28;20075;-65
2023/03/09 09:14:33;;;;;;;7.80;2.23;;;;;;;7.86;32.77;97657.50;5024088;28;20751;-65
2023/03/09 09:17:00;;;;;;;3.70;1.87;;;;;;;7.95;32.40;97661.66;5023708;28;20056;-65
2023/03/09 09:19:26;;;;;;;3.80;1.53;;;;;;;7.90;32.74;97654.28;5040563;28;20048;-65
2023/03/09 09:21:54;;;;;;;2.47;1.67;;;;;;;7.88;32.71;97661.59;5073235;28;20044;-66
2023/03/09 09:24:23;;;;;;;4.03;1.30;;;;;;;7.45;33.88;97670.50;5040053;28;20055;-65
2023/03/09 09:26:49;;;;;;;3.70;1.40;;;;;;;7.24;34.38;97661.72;5023645;28;20135;-66
2023/03/09 09:29:14;;;;;;;1.20;1.10;;;;;;;6.89;35.12;97640.38;5023485;28;20185;-65
2023/03/09 09:31:40;;;;;;;1.53;1.30;;;;;;;6.75;35.60;97685.19;5039977;28;20515;-66
2023/03/09 09:34:08;;;;;;;1.87;1.20;;;;;;;6.55;36.36;97669.09;5023543;28;20040;-71
2023/03/09 09:36:34;;;;;;;2.67;1.60;;;;;;;6.72;36.85;97672.38;5023405;28;20594;-66
2023/03/09 09:39:01;;;;;;;1.73;1.30;;;;;;;6.70;37.08;97651.47;5007291;28;20469;-65
2023/03/09 09:41:57;;;;;;;1.70;1.30;;;;;;;6.53;38.61;97657.91;5056369;28;20044;-65
2023/03/09 09:44:30;;;;;;;3.33;1.23;;;;;;;6.63;39.91;97658.47;5036238;28;20057;-65
2023/03/09 09:46:59;;;;;;;2.47;1.53;;;;;;;6.23;40.22;97655.41;5039575;28;20060;-65
2023/03/09 09:49:26;;;;;;;4.63;1.40;;;;;;;6.65;40.50;97634.56;5056344;28;20048;-65
2023/03/09 09:52:11;;;;;;;4.97;1.77;;;;;;;6.83;40.46;97658.75;5039554;28;20472;-65
2023/03/09 09:55:03;;;;;;;3.80;1.73;;;;;;;6.84;40.94;97626.91;5056080;28;20048;-65
2023/03/09 09:57:41;;;;;;;5.33;2.47;;;;;;;6.71;42.28;97629.38;5055872;28;20166;-64
2023/03/09 10:00:20;;;;;;;3.57;1.50;;;;;;;6.05;42.71;97642.59;5056050;28;20064;-64
2023/03/09 10:02:58;;;;;;;6.33;2.10;;;;;;;6.29;43.87;97644.97;5022806;28;20484;-65
2023/03/09 10:05:30;;;;;;;5.80;1.57;;;;;;;5.95;44.85;97636.72;5022512;28;20041;-64
2023/03/09 10:08:01;;;;;;;5.17;1.70;;;;;;;6.03;45.98;97620.84;5056102;28;20052;-64
2023/03/09 10:10:29;;;;;;;2.20;1.43;;;;;;;5.85;46.33;97636.16;5039038;28;20043;-66
2023/03/09 10:12:59;;;;;;;3.70;1.60;;;;;;;5.62;46.88;97635.31;5022647;28;20111;-65
2023/03/09 10:15:30;;;;;;;1.53;1.43;;;;;;;5.93;47.28;97622.09;5039824;28;20040;-67
2023/03/09 10:18:01;;;;;;;3.53;2.13;;;;;;;6.02;47.61;97628.94;5039027;28;20480;-65
2023/03/09 10:20:34;;;;;;;5.47;2.13;;;;;;;6.00;48.07;97623.84;5072530;28;20514;-65
2023/03/09 10:23:06;;;;;;;4.57;2.40;;;;;;;5.93;48.72;97615.03;5038963;28;20127;-66
2023/03/09 10:25:32;;;;;;;4.37;2.20;;;;;;;5.70;48.40;97608.09;5055936;28;20044;-65
2023/03/09 10:28:04;;;;;;;5.50;2.47;;;;;;;5.80;48.38;97614.75;5022321;28;20135;-65
2023/03/09 10:30:55;;;;;;;3.13;1.80;;;;;;;6.15;49.29;97614.16;5039025;28;20127;-65
2023/03/09 10:33:40;;;;;;;7.63;2.72;;;;;;;6.19;49.27;97601.44;5055768;28;20050;-65
2023/03/09 10:36:10;;;;;;;6.23;1.90;;;;;;;5.84;49.38;97604.72;5038569;28;20468;-65
2023/03/09 10:38:38;;;;;;;2.97;2.00;;;;;;;5.89;49.81;97590.03;5055482;28;20132;-65
2023/03/09 10:41:06;;;;;;;8.27;2.40;;;;;;;5.77;49.99;97593.22;5054998;28;20052;-66
2023/03/09 10:43:34;;;;;;;2.60;2.10;;;;;;;5.85;50.21;97607.19;5021717;28;20045;-64
2023/03/09 10:46:23;;;;;;;4.90;2.40;;;;;;;6.14;50.33;97594.06;5038635;28;20050;-65
2023/03/09 10:49:10;;;;;;;11.47;2.60;;;;;;;6.03;50.71;97591.88;5038227;28;20140;-66
2023/03/09 10:51:39;;;;;;;3.83;2.27;;;;;;;5.92;51.19;97587.03;5038358;28;20044;-66
2023/03/09 10:54:17;;;;;;;5.33;2.27;;;;;;;5.95;51.40;97594.56;5038503;28;20515;-66
2023/03/09 10:56:44;;;;;;;10.63;2.77;;;;;;;5.74;51.82;97590.94;5054979;28;20098;-67
2023/03/09 10:59:19;;;;;;;6.30;3.13;;;;;;;5.92;52.08;97575.69;5039903;28;20066;-65
2023/03/09 11:01:47;;;;;;;6.87;2.77;;;;;;;5.83;52.03;97595.16;5074848;28;20471;-66
2023/03/09 11:04:22;;;;;;;4.73;2.80;;;;;;;6.04;52.44;97596.13;5074359;28;20044;-70
2023/03/09 11:06:59;;;;;;;4.50;2.70;;;;;;;5.89;52.85;97578.69;5058090;28;20059;-65
2023/03/09 11:09:35;;;;;;;6.73;3.57;;;;;;;6.01;52.45;97564.88;5041789;28;20040;-65
2023/03/09 11:12:32;;;;;;;5.50;2.83;;;;;;;6.08;52.64;97576.34;5025154;28;20044;-65
2023/03/09 11:15:01;;;;;;;8.73;3.50;;;;;;;6.08;52.29;97580.78;5057852;28;20050;-65
2023/03/09 11:17:40;;;;;;;6.37;3.10;;;;;;;6.46;53.04;97564.72;5058240;28;20040;-65
2023/03/09 11:20:15;;;;;;;3.63;2.87;;;;;;;6.34;52.05;97571.47;5074659;28;20070;-65
2023/03/09 11:22:55;;;;;;;4.37;3.03;;;;;;;6.47;51.83;97569.00;5041241;28;20071;-67
2023/03/09 11:25:27;;;;;;;5.50;3.47;;;;;;;6.51;51.99;97570.28;5091042;28;20051;-65
2023/03/09 11:28:00;;;;;;;6.47;3.30;;;;;;;6.51;52.05;97580.00;5041009;28;20044;-65
2023/03/09 11:30:27;;;;;;;3.80;3.10;;;;;;;6.18;52.02;97573.47;5041489;28;20043;-65
2023/03/09 11:32:53;;;;;;;6.60;3.10;;;;;;;6.09;52.37;97572.72;5041284;28;20134;-65
2023/03/09 11:35:22;;;;;;;5.23;3.40;;;;;;;6.25;52.72;97567.28;5024814;28;20044;-65
2023/03/09 11:37:54;;;;;;;6.57;3.63;;;;;;;6.16;53.02;97568.38;5058190;28;20127;-65
2023/03/09 11:40:22;;;;;;;6.03;3.10;;;;;;;6.08;52.83;97575.53;5041103;28;20040;-66
2023/03/09 11:42:57;;;;;;;5.57;3.50;;;;;;;5.93;53.31;97572.88;5091274;28;20040;-71
2023/03/09 11:45:28;;;;;;;5.03;2.87;;;;;;;6.01;52.32;97558.81;5074473;28;20067;-65
2023/03/09 11:48:03;;;;;;;7.20;3.03;;;;;;;6.14;53.22;97562.44;5074863;28;20065;-65
2023/03/09 11:50:35;;;;;;;6.10;3.57;;;;;;;6.41;53.09;97564.44;5057924;28;20051;-65
2023/03/09 11:53:04;;;;;;;5.77;3.63;;;;;;;6.46;53.26;97550.72;5024572;28;20047;-64